High Tide — D5AA7 — position and weather

sailwx.info

Track history (hours):
 
Tides and Currents Weather Stations Pressure Air Temp Water Temp Dewpoint Dewpoint Depression Visibility Wind Speed Wind Dir Waves Ship Positions

High Tide

Last reported at 2014-Aug-13 17:27 UTC. Time now 2014-Sep-02 21:27 UTC.
Position N 01°12' E 103°49'.
Warning: this ship's position is 20 days out of date.

Length 183 m; draft 10.1 m.

Type: Tanker. MMSI: 636015337.

Date/timePositionNaut miles runAvg speedWind from/ knotsBaromVisibWave heightAir tempDewpointWater temp
2014-Aug-13 17:27N 01°12' E 103°49'2 0.6
2014-Aug-13 14:31N 01°14' E 103°48'0 0.0
2014-Aug-13 11:28N 01°14' E 103°48'0 0.0
2014-Aug-13 08:31N 01°14' E 103°48'0 0.0
2014-Aug-13 07:28N 01°14' E 103°48'0 0.0
2014-Aug-13 02:28N 01°14' E 103°48'0 0.0
2014-Aug-13 00:25N 01°14' E 103°48'0 0.0
2014-Aug-12 22:31N 01°14' E 103°48'0 0.0
2014-Aug-12 21:25N 01°14' E 103°48'0 0.0
2014-Aug-12 20:13N 01°14' E 103°48'0 0.0
2014-Aug-12 19:16N 01°14' E 103°48'0 0.0
2014-Aug-12 17:10N 01°14' E 103°48'0 0.0
2014-Aug-12 16:28N 01°14' E 103°48'0 0.1
2014-Aug-12 14:31N 01°14' E 103°48'0 0.0
2014-Aug-12 10:13N 01°14' E 103°48'0 0.0
2014-Aug-12 06:12N 01°14' E 103°48'0 0.0
2014-Aug-12 02:07N 01°14' E 103°48'0 0.0
2014-Aug-12 01:18N 01°14' E 103°48'0 0.0
2014-Aug-11 14:30N 01°14' E 103°48'0 0.0
2014-Aug-11 13:24N 01°14' E 103°48'0 0.0
2014-Aug-11 11:24N 01°14' E 103°48'0 0.0
2014-Aug-11 10:30N 01°14' E 103°48'0 0.0
2014-Aug-11 09:24N 01°14' E 103°48'0 0.0
2014-Aug-11 08:30N 01°14' E 103°48'0 0.0
2014-Aug-11 07:30N 01°14' E 103°48'0 0.0
2014-Aug-11 03:31N 01°14' E 103°48'4 3.8
2014-Aug-11 02:32N 01°14' E 103°44'0 0.0
2014-Aug-09 08:33N 01°14' E 103°44'2 1.9
2014-Aug-09 07:26N 01°16' E 103°46'4 1.9
2014-Aug-09 05:33N 01°14' E 103°49'0 0.0
2014-Aug-09 04:09N 01°14' E 103°49'0 0.0
2014-Aug-09 00:33N 01°14' E 103°49'0 0.1
2014-Aug-08 22:15N 01°13' E 103°49'0 0.0
2014-Aug-08 20:12N 01°13' E 103°49'0 0.1
2014-Aug-08 19:33N 01°13' E 103°49'0 0.0
2014-Aug-08 11:33N 01°14' E 103°49'0 0.1
2014-Aug-08 10:30N 01°14' E 103°49'0 0.0
2014-Aug-07 15:15N 01°13' E 103°49'3 3.2
2014-Aug-07 14:23N 01°13' E 103°51'7 8.3
2014-Aug-07 13:33N 01°16' E 103°58'  
Track history (hours):
 
Tides and Currents Weather Stations Pressure Air Temp Water Temp Dewpoint Dewpoint Depression Visibility Wind Speed Wind Dir Waves Ship Positions

High Tide

Last reported at 2014-Aug-13 17:27 UTC. Time now 2014-Sep-02 21:27 UTC.
Position N 01°12' E 103°49'.
Warning: this ship's position is 20 days out of date.

Length 183 m; draft 10.1 m.

Type: Tanker. MMSI: 636015337.

Date/timePositionNaut miles runAvg speedWind from/ knotsBaromVisibWave heightAir tempDewpointWater temp
2014-Aug-13 17:27N 01°12' E 103°49'2 0.6
2014-Aug-13 14:31N 01°14' E 103°48'0 0.0
2014-Aug-13 11:28N 01°14' E 103°48'0 0.0
2014-Aug-13 08:31N 01°14' E 103°48'0 0.0
2014-Aug-13 07:28N 01°14' E 103°48'0 0.0
2014-Aug-13 02:28N 01°14' E 103°48'0 0.0
2014-Aug-13 00:25N 01°14' E 103°48'0 0.0
2014-Aug-12 22:31N 01°14' E 103°48'0 0.0
2014-Aug-12 21:25N 01°14' E 103°48'0 0.0
2014-Aug-12 20:13N 01°14' E 103°48'0 0.0
2014-Aug-12 19:16N 01°14' E 103°48'0 0.0
2014-Aug-12 17:10N 01°14' E 103°48'0 0.0
2014-Aug-12 16:28N 01°14' E 103°48'0 0.1
2014-Aug-12 14:31N 01°14' E 103°48'0 0.0
2014-Aug-12 10:13N 01°14' E 103°48'0 0.0
2014-Aug-12 06:12N 01°14' E 103°48'0 0.0
2014-Aug-12 02:07N 01°14' E 103°48'0 0.0
2014-Aug-12 01:18N 01°14' E 103°48'0 0.0
2014-Aug-11 14:30N 01°14' E 103°48'0 0.0
2014-Aug-11 13:24N 01°14' E 103°48'0 0.0
2014-Aug-11 11:24N 01°14' E 103°48'0 0.0
2014-Aug-11 10:30N 01°14' E 103°48'0 0.0
2014-Aug-11 09:24N 01°14' E 103°48'0 0.0
2014-Aug-11 08:30N 01°14' E 103°48'0 0.0
2014-Aug-11 07:30N 01°14' E 103°48'0 0.0
2014-Aug-11 03:31N 01°14' E 103°48'4 3.8
2014-Aug-11 02:32N 01°14' E 103°44'0 0.0
2014-Aug-09 08:33N 01°14' E 103°44'2 1.9
2014-Aug-09 07:26N 01°16' E 103°46'4 1.9
2014-Aug-09 05:33N 01°14' E 103°49'0 0.0
2014-Aug-09 04:09N 01°14' E 103°49'0 0.0
2014-Aug-09 00:33N 01°14' E 103°49'0 0.1
2014-Aug-08 22:15N 01°13' E 103°49'0 0.0
2014-Aug-08 20:12N 01°13' E 103°49'0 0.1
2014-Aug-08 19:33N 01°13' E 103°49'0 0.0
2014-Aug-08 11:33N 01°14' E 103°49'0 0.1
2014-Aug-08 10:30N 01°14' E 103°49'0 0.0
2014-Aug-07 15:15N 01°13' E 103°49'3 3.2
2014-Aug-07 14:23N 01°13' E 103°51'7 8.3
2014-Aug-07 13:33N 01°16' E 103°58'  

Dump ship's entire track history